Time;durP1;ratioP1;P1;durP2;ratioP2;P2;SDS_P1;SDS_P2;PMS_P1;PMS_P2;Temp;Humidity;BMP_temperature;BMP_pressure;BME280_temperature;BME280_humidity;BME280_pressure;Samples;Min_cycle;Max_cycle;Signal;HPM_P1;HPM_P2
2021/04/22 00:00:20;;;;;;;24.90;14.63;;;;;;;9.33;100.00;96258.31;5057653;28;20236;-70
2021/04/22 00:02:46;;;;;;;21.07;12.57;;;;;;;9.21;100.00;96257.06;5057628;28;20262;-72
2021/04/22 00:05:20;;;;;;;27.40;15.33;;;;;;;9.24;100.00;96269.84;5056664;28;20287;-70
2021/04/22 00:07:48;;;;;;;27.23;14.83;;;;;;;9.26;100.00;96260.00;5057484;28;20227;-70
2021/04/22 00:10:16;;;;;;;27.37;15.60;;;;;;;9.19;100.00;96262.47;5057278;28;20205;-70
2021/04/22 00:12:42;;;;;;;32.87;16.90;;;;;;;9.09;100.00;96258.41;5057631;28;20212;-70
2021/04/22 00:15:12;;;;;;;32.43;16.57;;;;;;;9.09;100.00;96271.53;5056821;28;20197;-71
2021/04/22 00:17:38;;;;;;;25.40;14.63;;;;;;;9.15;100.00;96260.34;5057024;28;20233;-70
2021/04/22 00:20:06;;;;;;;25.37;14.97;;;;;;;9.25;100.00;96260.97;5058143;28;20204;-70
2021/04/22 00:22:33;;;;;;;27.80;14.43;;;;;;;9.25;100.00;96251.31;5056948;28;20211;-71
2021/04/22 00:24:59;;;;;;;34.27;15.57;;;;;;;9.30;100.00;96253.41;5054054;28;20193;-72
2021/04/22 00:27:25;;;;;;;25.87;14.87;;;;;;;9.21;100.00;96249.97;5056326;28;20216;-72
2021/04/22 00:29:50;;;;;;;23.93;13.77;;;;;;;9.20;100.00;96253.63;5058333;28;20725;-71
2021/04/22 00:32:17;;;;;;;27.57;14.47;;;;;;;9.16;100.00;96259.34;5056736;28;20203;-73
2021/04/22 00:34:43;;;;;;;25.80;14.03;;;;;;;9.13;100.00;96246.56;5056283;28;20228;-69
2021/04/22 00:37:08;;;;;;;26.97;14.70;;;;;;;9.09;100.00;96253.16;5056375;28;20633;-69
2021/04/22 00:39:36;;;;;;;27.73;14.17;;;;;;;9.18;100.00;96252.13;5057806;28;20228;-70
2021/04/22 00:42:04;;;;;;;22.37;12.37;;;;;;;8.95;100.00;96253.81;5057074;28;20212;-70
2021/04/22 00:44:30;;;;;;;23.10;13.33;;;;;;;9.00;100.00;96246.25;5056867;28;20242;-70
2021/04/22 00:46:57;;;;;;;25.73;14.33;;;;;;;9.02;100.00;96246.91;5056450;28;20250;-72
2021/04/22 00:49:23;;;;;;;25.33;14.93;;;;;;;8.98;100.00;96258.75;5056517;28;20205;-69
2021/04/22 00:51:50;;;;;;;28.93;15.17;;;;;;;8.90;100.00;96245.63;5057529;28;20207;-70
2021/04/22 00:54:16;;;;;;;23.13;12.47;;;;;;;8.75;100.00;96251.72;5056497;28;20240;-70
2021/04/22 00:56:43;;;;;;;22.10;13.17;;;;;;;8.72;100.00;96252.88;5056493;28;20604;-70
2021/04/22 00:59:09;;;;;;;23.07;12.77;;;;;;;8.69;100.00;96253.22;5056742;28;20670;-72
2021/04/22 01:01:35;;;;;;;25.40;13.60;;;;;;;8.53;100.00;96258.44;5057284;28;20302;-72
2021/04/22 01:04:01;;;;;;;30.07;15.47;;;;;;;8.46;100.00;96255.81;5056221;28;20205;-72
2021/04/22 01:06:27;;;;;;;23.40;13.50;;;;;;;8.37;100.00;96262.06;5056387;28;20204;-70
2021/04/22 01:08:53;;;;;;;20.93;12.57;;;;;;;8.35;100.00;96267.47;5056710;28;20670;-72
2021/04/22 01:11:19;;;;;;;23.53;12.77;;;;;;;8.10;100.00;96267.56;5056953;28;20222;-70
2021/04/22 01:13:46;;;;;;;25.43;12.90;;;;;;;7.99;100.00;96273.94;5056210;28;20239;-72
2021/04/22 01:16:12;;;;;;;23.00;12.43;;;;;;;8.01;100.00;96268.53;5056034;28;20226;-70
2021/04/22 01:18:40;;;;;;;25.47;14.33;;;;;;;7.89;100.00;96261.91;5056105;28;20260;-70
2021/04/22 01:21:11;;;;;;;25.13;14.33;;;;;;;7.91;100.00;96273.09;5056697;28;20220;-70
2021/04/22 01:23:38;;;;;;;19.60;12.00;;;;;;;7.82;100.00;96279.28;5053840;28;20197;-70
2021/04/22 01:26:04;;;;;;;17.27;10.97;;;;;;;7.85;100.00;96276.34;5055930;28;20200;-72
2021/04/22 01:28:30;;;;;;;23.13;13.47;;;;;;;7.83;100.00;96278.31;5056103;28;20235;-69
2021/04/22 01:30:56;;;;;;;31.10;15.90;;;;;;;7.75;100.00;96283.53;5056654;28;20242;-71
2021/04/22 01:33:25;;;;;;;23.80;13.70;;;;;;;7.65;100.00;96280.22;5056839;28;20231;-72
2021/04/22 01:35:55;;;;;;;17.80;10.93;;;;;;;7.63;100.00;96282.16;5055847;28;20222;-72
2021/04/22 01:38:23;;;;;;;19.67;11.33;;;;;;;7.63;100.00;96274.31;5056320;28;20818;-72
2021/04/22 01:40:50;;;;;;;19.67;11.33;;;;;;;7.68;100.00;96276.47;5057703;28;20223;-70
2021/04/22 01:43:17;;;;;;;26.60;13.30;;;;;;;7.58;100.00;96281.81;5056026;28;20205;-71
2021/04/22 01:45:43;;;;;;;23.83;13.77;;;;;;;7.62;100.00;96284.94;5055208;28;20514;-70
2021/04/22 01:48:09;;;;;;;29.67;15.10;;;;;;;7.74;100.00;96287.13;5059729;28;20724;-70
2021/04/22 01:50:37;;;;;;;28.33;16.37;;;;;;;7.82;100.00;96286.34;5060256;28;20197;-72
2021/04/22 01:53:04;;;;;;;17.00;10.80;;;;;;;7.76;100.00;96281.72;5059928;28;20204;-70
2021/04/22 01:55:32;;;;;;;16.10;10.60;;;;;;;7.81;100.00;96290.75;5059237;28;20203;-72
2021/04/22 01:57:59;;;;;;;21.03;11.47;;;;;;;7.81;100.00;96288.13;5060337;28;20273;-70
2021/04/22 02:00:28;;;;;;;24.90;13.60;;;;;;;7.86;100.00;96293.72;5059520;28;20197;-70
2021/04/22 02:02:54;;;;;;;22.07;13.40;;;;;;;7.83;100.00;96298.47;5060181;28;20200;-70
2021/04/22 02:05:21;;;;;;;28.33;14.90;;;;;;;7.77;100.00;96294.69;5058999;28;20209;-72
2021/04/22 02:07:47;;;;;;;31.53;17.23;;;;;;;7.77;100.00;96299.94;5060098;28;20232;-72
2021/04/22 02:10:14;;;;;;;34.10;17.33;;;;;;;7.81;100.00;96303.06;5060041;28;20224;-70
2021/04/22 02:12:41;;;;;;;21.23;11.47;;;;;;;7.63;100.00;96299.72;5060117;28;20196;-69
2021/04/22 02:15:11;;;;;;;22.10;13.80;;;;;;;7.79;100.00;96305.84;5058368;28;20220;-73
2021/04/22 02:17:37;;;;;;;27.57;15.53;;;;;;;7.76;100.00;96300.91;5059791;28;20238;-70
2021/04/22 02:20:06;;;;;;;30.37;16.40;;;;;;;7.82;100.00;96302.91;5059871;28;20201;-70
2021/04/22 02:22:32;;;;;;;28.07;15.90;;;;;;;7.91;100.00;96291.44;5059900;28;20672;-71
2021/04/22 02:24:58;;;;;;;28.80;16.73;;;;;;;7.94;100.00;96299.00;5056312;28;20196;-73
2021/04/22 02:27:24;;;;;;;30.67;16.93;;;;;;;7.95;100.00;96298.03;5059128;28;20894;-70
2021/04/22 02:29:50;;;;;;;32.37;18.23;;;;;;;8.03;100.00;96293.63;5059318;28;20244;-70
2021/04/22 02:32:17;;;;;;;32.93;17.47;;;;;;;8.10;100.00;96285.94;5059268;28;20205;-70
2021/04/22 02:34:43;;;;;;;35.70;18.20;;;;;;;8.20;100.00;96286.66;5059367;28;20220;-72
2021/04/22 02:37:09;;;;;;;30.77;17.10;;;;;;;8.21;100.00;96289.09;5058496;28;20224;-72
2021/04/22 02:39:35;;;;;;;35.50;18.60;;;;;;;8.19;100.00;96288.44;5059324;28;20204;-70
2021/04/22 02:42:01;;;;;;;35.00;18.30;;;;;;;8.21;100.00;96290.88;5059219;28;20205;-70
2021/04/22 02:44:27;;;;;;;36.10;19.20;;;;;;;8.26;100.00;96292.06;5059437;28;20640;-70
2021/04/22 02:46:53;;;;;;;32.37;17.50;;;;;;;8.23;100.00;96300.25;5059026;28;20220;-69
2021/04/22 02:49:19;;;;;;;31.67;17.63;;;;;;;8.23;100.00;96302.06;5059131;28;20311;-73
2021/04/22 02:51:45;;;;;;;31.63;17.90;;;;;;;8.19;100.00;96300.75;5055794;28;20212;-72
2021/04/22 02:54:11;;;;;;;36.37;18.60;;;;;;;8.20;100.00;96294.53;5059380;28;20221;-70
2021/04/22 02:56:37;;;;;;;36.77;19.03;;;;;;;8.26;100.00;96294.69;5058515;28;20292;-72
2021/04/22 02:59:04;;;;;;;32.50;17.37;;;;;;;8.33;100.00;96302.75;5058923;28;20248;-70
2021/04/22 03:01:30;;;;;;;34.97;18.50;;;;;;;8.27;100.00;96295.50;5058359;28;20200;-70
2021/04/22 03:03:56;;;;;;;30.33;17.40;;;;;;;8.27;100.00;96300.75;5059705;28;20935;-70
2021/04/22 03:06:23;;;;;;;31.67;16.83;;;;;;;8.10;100.00;96306.94;5057730;28;20282;-70
2021/04/22 03:08:49;;;;;;;29.70;16.83;;;;;;;8.06;100.00;96313.47;5056799;28;20204;-69
2021/04/22 03:11:15;;;;;;;33.57;17.37;;;;;;;7.93;100.00;96306.06;5058740;28;20251;-73
2021/04/22 03:13:41;;;;;;;28.43;16.73;;;;;;;7.94;100.00;96306.88;5058760;28;20228;-72
2021/04/22 03:16:07;;;;;;;29.27;16.87;;;;;;;7.96;100.00;96304.91;5057315;28;20200;-72
2021/04/22 03:18:33;;;;;;;23.63;14.20;;;;;;;7.86;100.00;96304.22;5058417;28;20220;-71
2021/04/22 03:20:59;;;;;;;24.77;14.27;;;;;;;7.65;100.00;96311.69;5058614;28;20258;-72
2021/04/22 03:23:26;;;;;;;28.80;15.03;;;;;;;7.75;100.00;96303.69;5055123;28;21216;-73
2021/04/22 03:25:52;;;;;;;30.97;16.53;;;;;;;7.65;100.00;96305.59;5057731;28;20670;-70
2021/04/22 03:28:18;;;;;;;30.53;17.00;;;;;;;7.74;100.00;96305.50;5058374;28;20234;-70
2021/04/22 03:30:44;;;;;;;32.00;16.93;;;;;;;7.69;100.00;96307.78;5058219;28;20200;-70
2021/04/22 03:33:10;;;;;;;31.10;17.57;;;;;;;7.63;100.00;96305.78;5057960;28;20324;-73
2021/04/22 03:35:36;;;;;;;33.67;17.80;;;;;;;7.62;100.00;96301.50;5057988;28;20258;-69
2021/04/22 03:38:03;;;;;;;25.47;15.83;;;;;;;7.60;100.00;96303.47;5058119;28;20235;-69
2021/04/22 03:40:30;;;;;;;32.97;17.90;;;;;;;7.71;100.00;96310.22;5058557;28;20235;-69
2021/04/22 03:42:56;;;;;;;34.23;18.33;;;;;;;7.75;100.00;96309.78;5057607;28;20200;-70
2021/04/22 03:45:23;;;;;;;33.67;18.97;;;;;;;7.58;100.00;96310.66;5057550;28;20201;-70
2021/04/22 03:47:50;;;;;;;38.37;18.73;;;;;;;7.72;100.00;96315.31;5057688;28;20596;-71
2021/04/22 03:50:18;;;;;;;29.57;16.47;;;;;;;7.77;100.00;96312.22;5058499;28;20204;-70
2021/04/22 03:52:45;;;;;;;30.83;15.97;;;;;;;7.81;100.00;96311.75;5057647;28;20212;-72
2021/04/22 03:55:14;;;;;;;31.60;17.40;;;;;;;7.88;100.00;96320.63;5057137;28;20228;-72
2021/04/22 03:57:41;;;;;;;36.17;18.53;;;;;;;7.91;100.00;96325.56;5058013;28;20221;-72
2021/04/22 04:00:10;;;;;;;29.77;16.60;;;;;;;7.81;100.00;96319.59;5058138;28;20200;-69
2021/04/22 04:02:36;;;;;;;32.53;15.47;;;;;;;7.76;100.00;96324.50;5057414;28;20685;-70
2021/04/22 04:05:02;;;;;;;26.30;14.90;;;;;;;7.66;100.00;96325.63;5057214;28;20196;-72
2021/04/22 04:07:28;;;;;;;31.50;17.37;;;;;;;7.72;100.00;96327.63;5058644;28;20706;-72
2021/04/22 04:09:54;;;;;;;33.30;17.80;;;;;;;7.73;100.00;96332.69;5056533;28;20212;-70
2021/04/22 04:12:20;;;;;;;34.30;18.53;;;;;;;7.82;100.00;96334.38;5057649;28;20224;-72
2021/04/22 04:14:47;;;;;;;34.13;17.73;;;;;;;7.83;100.00;96338.66;5057509;28;20327;-70
2021/04/22 04:17:13;;;;;;;31.37;18.30;;;;;;;7.91;100.00;96338.69;5056565;28;20224;-73
2021/04/22 04:19:39;;;;;;;36.03;18.63;;;;;;;7.89;100.00;96338.84;5057324;28;20723;-70
2021/04/22 04:22:05;;;;;;;31.00;16.73;;;;;;;7.83;100.00;96350.94;5057569;28;20295;-70
2021/04/22 04:24:31;;;;;;;28.87;16.77;;;;;;;7.83;100.00;96350.94;5054476;28;20196;-71
2021/04/22 04:26:57;;;;;;;31.03;17.20;;;;;;;7.85;100.00;96351.59;5057074;28;20217;-70
2021/04/22 04:29:23;;;;;;;32.07;17.23;;;;;;;7.92;100.00;96362.13;5056783;28;20284;-70
2021/04/22 04:31:50;;;;;;;29.87;17.27;;;;;;;7.85;100.00;96359.47;5057856;28;20264;-72
2021/04/22 04:34:16;;;;;;;31.43;17.67;;;;;;;7.81;100.00;96364.19;5056869;28;20441;-69
2021/04/22 04:36:45;;;;;;;33.40;17.53;;;;;;;7.84;100.00;96369.16;5057149;28;20219;-71
2021/04/22 04:39:12;;;;;;;32.97;18.57;;;;;;;7.88;100.00;96375.72;5057132;28;20211;-69
2021/04/22 04:41:38;;;;;;;32.33;18.13;;;;;;;7.89;100.00;96369.47;5057019;28;20205;-72
2021/04/22 04:44:04;;;;;;;33.53;18.00;;;;;;;7.91;100.00;96370.16;5056840;28;20207;-70
2021/04/22 04:46:31;;;;;;;33.40;18.40;;;;;;;7.83;100.00;96380.63;5056713;28;20208;-70
2021/04/22 04:48:58;;;;;;;31.60;18.17;;;;;;;7.86;100.00;96382.13;5056904;28;20204;-72
2021/04/22 04:51:24;;;;;;;37.10;19.43;;;;;;;7.85;100.00;96389.13;5056886;28;20200;-72
2021/04/22 04:53:51;;;;;;;41.33;20.23;;;;;;;7.90;100.00;96394.75;5056951;28;20234;-70
2021/04/22 04:56:18;;;;;;;35.10;18.80;;;;;;;7.89;100.00;96398.34;5055635;28;20200;-72
2021/04/22 04:58:44;;;;;;;34.73;18.53;;;;;;;7.99;100.00;96399.03;5057044;28;20220;-70
2021/04/22 05:01:10;;;;;;;35.80;19.23;;;;;;;8.08;100.00;96396.31;5056819;28;20212;-71
2021/04/22 05:03:36;;;;;;;35.70;18.87;;;;;;;8.08;100.00;96400.72;5056948;28;20201;-73
2021/04/22 05:06:03;;;;;;;38.77;19.13;;;;;;;8.12;100.00;96402.06;5055869;28;20208;-70
2021/04/22 05:08:29;;;;;;;36.13;19.23;;;;;;;8.20;100.00;96402.13;5057127;28;20221;-70
2021/04/22 05:10:55;;;;;;;37.80;19.13;;;;;;;8.30;100.00;96415.94;5056192;28;20208;-72
2021/04/22 05:13:21;;;;;;;37.63;18.90;;;;;;;8.33;100.00;96415.63;5056443;28;20621;-70
2021/04/22 05:15:47;;;;;;;34.50;18.37;;;;;;;8.41;100.00;96405.16;5056065;28;20204;-72
2021/04/22 05:18:13;;;;;;;34.10;18.57;;;;;;;8.36;100.00;96408.25;5057645;28;20217;-70
2021/04/22 05:20:39;;;;;;;30.53;16.83;;;;;;;8.41;100.00;96419.09;5056792;28;20232;-70
2021/04/22 05:23:06;;;;;;;35.13;18.03;;;;;;;8.46;100.00;96429.13;5060905;28;20277;-73
2021/04/22 05:25:32;;;;;;;36.43;18.63;;;;;;;8.42;100.00;96427.81;5057409;28;20215;-72
2021/04/22 05:27:58;;;;;;;33.30;18.23;;;;;;;8.43;100.00;96429.47;5060325;28;20216;-72
2021/04/22 05:30:25;;;;;;;35.23;19.70;;;;;;;8.55;100.00;96426.34;5061353;28;20196;-69
2021/04/22 05:32:51;;;;;;;37.30;19.93;;;;;;;8.57;100.00;96424.41;5060644;28;20211;-69
2021/04/22 05:35:17;;;;;;;35.93;19.70;;;;;;;8.54;100.00;96432.59;5059802;28;21226;-72
2021/04/22 05:37:43;;;;;;;39.63;20.70;;;;;;;8.60;100.00;96432.78;5060422;28;20228;-71
2021/04/22 05:40:12;;;;;;;38.23;19.17;;;;;;;8.76;100.00;96432.00;5060544;28;20208;-69
2021/04/22 05:42:37;;;;;;;35.60;19.53;;;;;;;8.82;100.00;96426.94;5060281;28;20208;-72
2021/04/22 05:45:05;;;;;;;34.63;19.17;;;;;;;8.79;100.00;96437.75;5059360;28;20240;-72
2021/04/22 05:47:31;;;;;;;34.87;19.27;;;;;;;8.78;100.00;96444.00;5060499;28;20578;-72
2021/04/22 05:49:57;;;;;;;39.23;20.00;;;;;;;8.82;100.00;96440.06;5060785;28;20205;-70
2021/04/22 05:52:23;;;;;;;36.43;20.33;;;;;;;8.76;100.00;96445.16;5059812;28;20693;-71
2021/04/22 05:54:49;;;;;;;40.10;20.67;;;;;;;8.87;100.00;96450.06;5060557;28;20224;-69
2021/04/22 05:57:16;;;;;;;37.77;19.57;;;;;;;8.86;100.00;96456.31;5059592;28;20336;-69
2021/04/22 05:59:42;;;;;;;36.23;20.10;;;;;;;8.93;100.00;96455.50;5060295;28;20743;-72
2021/04/22 06:02:08;;;;;;;38.70;20.47;;;;;;;9.02;100.00;96454.53;5060026;28;20287;-70
2021/04/22 06:04:34;;;;;;;39.30;21.00;;;;;;;9.12;100.00;96455.22;5060090;28;20586;-70
2021/04/22 06:07:00;;;;;;;41.77;21.67;;;;;;;9.28;100.00;96457.88;5059162;28;20653;-69
2021/04/22 06:09:26;;;;;;;38.33;20.07;;;;;;;9.36;100.00;96463.94;5059707;28;20250;-70
2021/04/22 06:11:52;;;;;;;34.93;19.43;;;;;;;9.23;100.00;96468.88;5059408;28;21227;-72
2021/04/22 06:14:19;;;;;;;36.53;19.47;;;;;;;9.13;100.00;96468.19;5060168;28;20230;-69
2021/04/22 06:16:45;;;;;;;40.13;19.67;;;;;;;9.07;100.00;96468.00;5058778;28;20610;-72
2021/04/22 06:19:11;;;;;;;40.00;20.17;;;;;;;9.07;100.00;96469.84;5059806;28;20293;-69
2021/04/22 06:21:37;;;;;;;36.07;19.93;;;;;;;9.18;100.00;96467.72;5058898;28;20205;-69
2021/04/22 06:24:04;;;;;;;36.07;20.10;;;;;;;9.19;100.00;96472.00;5055326;28;20215;-70
2021/04/22 06:26:31;;;;;;;41.17;20.07;;;;;;;9.22;100.00;96475.09;5059669;28;20291;-72
2021/04/22 06:29:00;;;;;;;36.70;20.43;;;;;;;9.34;100.00;96467.72;5060234;28;20204;-69
2021/04/22 06:31:27;;;;;;;38.97;19.63;;;;;;;9.40;100.00;96469.69;5059032;28;20319;-71
2021/04/22 06:33:53;;;;;;;37.37;20.33;;;;;;;9.40;100.00;96472.31;5057582;28;21141;-73
2021/04/22 06:36:19;;;;;;;37.53;19.87;;;;;;;9.47;100.00;96468.03;5059713;28;20262;-69
2021/04/22 06:38:45;;;;;;;35.77;20.33;;;;;;;9.48;100.00;96467.91;5058716;28;20232;-71
2021/04/22 06:41:11;;;;;;;34.77;20.17;;;;;;;9.46;100.00;96474.31;5059695;28;20636;-71
2021/04/22 06:43:37;;;;;;;37.77;20.03;;;;;;;9.35;100.00;96483.31;5059517;28;20201;-70
2021/04/22 06:46:03;;;;;;;37.20;21.20;;;;;;;9.57;100.00;96479.22;5058629;28;20200;-69
2021/04/22 06:48:30;;;;;;;36.07;19.70;;;;;;;9.52;100.00;96489.41;5058771;28;20244;-73
2021/04/22 06:50:56;;;;;;;41.43;20.37;;;;;;;9.50;100.00;96494.84;5059249;28;20205;-71
2021/04/22 06:53:22;;;;;;;36.23;19.53;;;;;;;9.48;100.00;96496.00;5058639;28;20203;-69
2021/04/22 06:55:48;;;;;;;36.73;19.77;;;;;;;9.52;100.00;96497.31;5058156;28;20616;-69
2021/04/22 06:58:15;;;;;;;35.97;19.20;;;;;;;9.50;99.69;96502.75;5058401;28;20452;-72
2021/04/22 07:00:43;;;;;;;37.87;18.63;;;;;;;9.65;98.40;96501.09;5058522;28;20299;-70
2021/04/22 07:03:09;;;;;;;35.63;18.80;;;;;;;9.66;99.61;96502.75;5057924;28;20208;-70
2021/04/22 07:05:37;;;;;;;36.70;18.77;;;;;;;9.54;98.39;96509.31;5057607;28;20208;-69
2021/04/22 07:08:04;;;;;;;36.97;19.50;;;;;;;9.53;96.65;96514.75;5058355;28;20721;-69
2021/04/22 07:10:30;;;;;;;35.43;18.13;;;;;;;9.46;97.15;96513.75;5057688;28;21073;-69
2021/04/22 07:12:56;;;;;;;36.80;19.20;;;;;;;9.55;98.28;96515.41;5058898;28;20209;-70
2021/04/22 07:15:22;;;;;;;34.20;18.80;;;;;;;9.70;98.33;96520.66;5058053;28;20220;-70
2021/04/22 07:17:49;;;;;;;38.93;19.17;;;;;;;9.63;95.01;96524.13;5058108;28;20258;-69
2021/04/22 07:20:17;;;;;;;35.30;17.53;;;;;;;9.60;96.05;96528.88;5058368;28;20890;-72
2021/04/22 07:22:44;;;;;;;34.87;18.97;;;;;;;9.70;99.29;96533.81;5059173;28;20204;-71
2021/04/22 07:25:12;;;;;;;35.33;19.33;;;;;;;9.77;99.96;96529.53;5054057;28;20200;-69
2021/04/22 07:27:39;;;;;;;36.27;18.57;;;;;;;9.81;99.34;96538.75;5058460;28;20285;-71
2021/04/22 07:30:06;;;;;;;37.13;19.07;;;;;;;9.81;99.50;96543.19;5058470;28;20196;-73
2021/04/22 07:32:32;;;;;;;39.33;19.00;;;;;;;10.01;99.43;96537.44;5058618;28;20243;-69
2021/04/22 07:34:58;;;;;;;35.67;19.23;;;;;;;10.08;97.25;96532.34;5057743;28;20250;-72
2021/04/22 07:37:25;;;;;;;40.17;19.97;;;;;;;10.27;97.58;96542.53;5058567;28;20312;-70
2021/04/22 07:39:51;;;;;;;34.40;19.40;;;;;;;10.49;97.38;96540.00;5057797;28;20207;-70
2021/04/22 07:42:18;;;;;;;31.20;17.10;;;;;;;10.36;92.56;96548.44;5057983;28;20204;-71
2021/04/22 07:44:47;;;;;;;35.73;18.87;;;;;;;10.30;95.25;96544.81;5059185;28;20658;-71
2021/04/22 07:47:13;;;;;;;32.87;18.00;;;;;;;10.32;95.95;96544.50;5057515;28;20676;-69
2021/04/22 07:49:39;;;;;;;37.53;18.27;;;;;;;10.22;92.76;96545.66;5056189;28;20219;-69
2021/04/22 07:52:06;;;;;;;36.77;18.77;;;;;;;10.27;91.48;96545.97;5056122;28;20670;-73
2021/04/22 07:54:32;;;;;;;37.90;20.07;;;;;;;10.41;91.18;96543.47;5055337;28;20279;-68
2021/04/22 07:56:59;;;;;;;29.47;17.83;;;;;;;10.66;87.93;96542.41;5055545;28;20550;-73
2021/04/22 07:59:25;;;;;;;33.33;18.43;;;;;;;10.74;90.99;96554.75;5057357;28;20200;-71
2021/04/22 08:01:51;;;;;;;36.43;19.00;;;;;;;10.93;89.21;96554.34;5056810;28;20211;-70
2021/04/22 08:04:17;;;;;;;36.63;18.23;;;;;;;11.09;90.07;96552.44;5056969;28;20211;-69
2021/04/22 08:06:43;;;;;;;35.73;19.27;;;;;;;11.16;92.90;96551.59;5056226;28;20678;-70
2021/04/22 08:09:09;;;;;;;39.03;19.10;;;;;;;11.34;87.35;96556.59;5056820;28;20213;-73
2021/04/22 08:11:35;;;;;;;31.90;17.67;;;;;;;11.04;89.03;96560.88;5057084;28;20709;-70
2021/04/22 08:14:02;;;;;;;33.33;18.27;;;;;;;11.18;86.64;96560.13;5056759;28;20235;-70
2021/04/22 08:16:28;;;;;;;37.20;19.00;;;;;;;11.32;86.91;96561.22;5055475;28;20279;-71
2021/04/22 08:18:55;;;;;;;39.27;19.53;;;;;;;11.39;91.83;96563.00;5057173;28;20467;-73
2021/04/22 08:21:21;;;;;;;33.63;18.50;;;;;;;11.51;89.36;96569.56;5056273;28;20948;-72
2021/04/22 08:23:47;;;;;;;37.23;17.63;;;;;;;11.39;86.28;96572.72;5053507;28;20204;-71
2021/04/22 08:26:17;;;;;;;32.10;17.13;;;;;;;11.55;85.08;96570.84;5055872;28;20205;-71
2021/04/22 08:28:43;;;;;;;34.70;17.70;;;;;;;11.68;82.61;96568.44;5057096;28;20223;-69
2021/04/22 08:31:13;;;;;;;36.93;18.33;;;;;;;11.69;85.08;96578.00;5055891;28;20219;-69
2021/04/22 08:33:40;;;;;;;33.57;19.03;;;;;;;11.59;85.56;96580.06;5056465;28;20231;-71
2021/04/22 08:36:08;;;;;;;34.73;18.50;;;;;;;11.58;86.40;96586.31;5055691;28;20208;-70
2021/04/22 08:38:35;;;;;;;38.63;17.67;;;;;;;11.71;83.88;96589.19;5056012;28;20225;-70
2021/04/22 08:41:02;;;;;;;34.93;19.43;;;;;;;11.58;86.77;96587.16;5056329;28;20208;-70
2021/04/22 08:43:28;;;;;;;38.47;19.43;;;;;;;11.60;84.00;96593.06;5056324;28;20410;-72
2021/04/22 08:45:54;;;;;;;37.27;19.10;;;;;;;11.74;86.18;96599.44;5055858;28;20857;-72
2021/04/22 08:48:22;;;;;;;30.80;18.10;;;;;;;11.47;86.98;96599.91;5056207;28;20220;-71
2021/04/22 08:50:50;;;;;;;35.37;19.13;;;;;;;11.18;89.45;96604.97;5057238;28;20266;-69
2021/04/22 08:53:18;;;;;;;36.90;19.37;;;;;;;11.45;90.13;96603.69;5056096;28;20590;-68
2021/04/22 08:55:45;;;;;;;37.00;19.80;;;;;;;11.52;85.66;96605.50;5055029;28;20401;-73
2021/04/22 08:58:12;;;;;;;34.17;20.23;;;;;;;11.55;88.68;96610.44;5055861;28;20365;-72
2021/04/22 09:00:42;;;;;;;33.47;18.40;;;;;;;11.71;87.16;96615.59;5056405;28;20196;-73
2021/04/22 09:03:08;;;;;;;37.20;19.67;;;;;;;11.77;86.97;96607.00;5056104;28;20197;-73
2021/04/22 09:05:35;;;;;;;35.37;19.23;;;;;;;11.77;83.85;96614.91;5055888;28;20196;-72
2021/04/22 09:08:01;;;;;;;33.23;18.73;;;;;;;11.50;86.67;96615.41;5056893;28;20220;-71
2021/04/22 09:10:28;;;;;;;33.60;19.03;;;;;;;11.38;87.29;96629.97;5056666;28;20216;-69
2021/04/22 09:12:57;;;;;;;35.73;20.67;;;;;;;11.19;88.82;96622.47;5056166;28;20295;-72
2021/04/22 09:15:23;;;;;;;36.57;21.30;;;;;;;11.08;88.24;96622.81;5056182;28;20216;-71
2021/04/22 09:17:56;;;;;;;35.37;20.60;;;;;;;10.91;90.39;96623.06;5057335;28;20231;-71
2021/04/22 09:20:27;;;;;;;37.17;20.90;;;;;;;11.22;92.30;96626.56;5055914;28;20200;-73
2021/04/22 09:22:54;;;;;;;36.33;20.60;;;;;;;11.37;87.63;96624.88;5057099;28;20204;-69
2021/04/22 09:25:24;;;;;;;37.73;21.13;;;;;;;11.32;89.10;96630.63;5052769;28;20197;-73
2021/04/22 09:27:50;;;;;;;37.20;20.57;;;;;;;11.17;89.42;96631.53;5056936;28;20252;-69
2021/04/22 09:30:28;;;;;;;35.97;20.07;;;;;;;11.08;89.01;96637.84;5056671;28;20203;-71
2021/04/22 09:32:54;;;;;;;39.57;21.33;;;;;;;11.33;88.60;96639.38;5057135;28;20569;-69
2021/04/22 09:35:24;;;;;;;32.83;19.07;;;;;;;11.21;88.18;96631.00;5055725;28;20220;-73
2021/04/22 09:37:52;;;;;;;37.37;20.73;;;;;;;11.21;90.53;96633.63;5056683;28;20335;-69
2021/04/22 09:40:24;;;;;;;34.77;19.90;;;;;;;11.13;89.79;96641.59;5056439;28;20661;-72
2021/04/22 09:42:52;;;;;;;39.80;20.33;;;;;;;11.38;87.52;96640.50;5056539;28;20578;-71
2021/04/22 09:45:21;;;;;;;41.23;20.30;;;;;;;11.53;87.40;96635.34;5054905;28;20202;-69
2021/04/22 09:47:47;;;;;;;37.87;19.57;;;;;;;11.88;82.70;96638.28;5055934;28;20228;-74
2021/04/22 09:50:17;;;;;;;39.97;20.07;;;;;;;12.20;83.31;96623.81;5055712;28;20242;-71
2021/04/22 09:52:45;;;;;;;37.40;20.60;;;;;;;12.49;81.33;96623.09;5056002;28;20925;-70
2021/04/22 09:55:15;;;;;;;36.60;20.50;;;;;;;12.81;80.60;96626.25;5056021;28;20220;-71
2021/04/22 09:57:43;;;;;;;36.60;20.87;;;;;;;12.72;78.15;96627.31;5056354;28;20305;-69
2021/04/22 10:00:13;;;;;;;43.25;20.52;;;;;;;12.64;78.51;96627.41;5056687;28;20207;-69
2021/04/22 10:02:44;;;;;;;37.47;19.97;;;;;;;12.71;74.42;96624.88;5057146;28;20579;-69
2021/04/22 10:05:17;;;;;;;35.47;20.10;;;;;;;12.68;77.61;96623.41;5055626;28;20193;-71
2021/04/22 10:07:44;;;;;;;31.60;18.92;;;;;;;13.05;76.12;96626.03;5057020;28;20224;-74
2021/04/22 10:10:16;;;;;;;37.92;20.20;;;;;;;13.07;78.49;96621.34;5059888;28;20212;-69
2021/04/22 10:12:43;;;;;;;34.80;20.25;;;;;;;13.45;77.26;96619.22;5060063;28;20215;-72
2021/04/22 10:15:11;;;;;;;35.92;19.25;;;;;;;13.57;77.99;96620.38;5059105;28;20232;-73
2021/04/22 10:17:37;;;;;;;31.33;18.45;;;;;;;13.26;75.55;96623.44;5061179;28;20224;-70
2021/04/22 10:20:06;;;;;;;37.80;20.42;;;;;;;13.14;76.76;96620.44;5059015;28;20226;-70
2021/04/22 10:22:33;;;;;;;34.22;20.30;;;;;;;12.81;76.57;96619.13;5058963;28;20201;-74
2021/04/22 10:25:02;;;;;;;33.50;19.60;;;;;;;13.09;72.86;96617.50;5057329;28;20200;-72
2021/04/22 10:27:29;;;;;;;37.75;21.52;;;;;;;13.33;74.04;96617.22;5059336;28;20270;-69
2021/04/22 10:29:57;;;;;;;35.05;20.75;;;;;;;13.38;72.59;96606.06;5059050;28;20196;-70
2021/04/22 10:32:23;;;;;;;34.58;21.00;;;;;;;13.41;71.36;96623.22;5059285;28;20200;-69
2021/04/22 10:34:51;;;;;;;34.13;20.25;;;;;;;13.33;71.14;96619.03;5059847;28;20990;-73
2021/04/22 10:37:18;;;;;;;36.88;20.35;;;;;;;13.42;70.00;96619.59;5058346;28;20239;-71
2021/04/22 10:39:45;;;;;;;35.08;20.65;;;;;;;13.23;71.93;96614.03;5059666;28;20201;-70
2021/04/22 10:42:12;;;;;;;37.28;21.05;;;;;;;13.39;77.05;96625.25;5059107;28;20200;-72
2021/04/22 10:44:38;;;;;;;29.77;17.88;;;;;;;13.38;70.82;96628.09;5059481;28;20204;-70
2021/04/22 10:47:06;;;;;;;37.10;19.30;;;;;;;13.33;72.32;96619.03;5058277;28;20220;-70
2021/04/22 10:49:32;;;;;;;35.17;20.20;;;;;;;13.38;74.85;96621.97;5058847;28;20200;-72
2021/04/22 10:52:02;;;;;;;35.70;19.45;;;;;;;13.47;74.78;96627.78;5058840;28;20707;-73
2021/04/22 10:54:28;;;;;;;31.92;18.52;;;;;;;13.39;69.45;96619.16;5058409;28;20339;-72
2021/04/22 10:57:06;;;;;;;36.30;20.33;;;;;;;13.59;72.06;96613.09;5057777;28;20247;-70
2021/04/22 10:59:33;;;;;;;31.17;19.35;;;;;;;13.90;70.73;96612.78;5059400;28;20215;-70
2021/04/22 11:02:10;;;;;;;33.38;19.45;;;;;;;13.71;67.25;96608.09;5057989;28;20596;-70
2021/04/22 11:04:37;;;;;;;30.80;18.13;;;;;;;13.70;68.64;96609.94;5059062;28;20254;-70
2021/04/22 11:07:13;;;;;;;36.25;20.55;;;;;;;14.46;69.75;96612.75;5058176;28;20217;-73
2021/04/22 11:09:39;;;;;;;34.38;18.98;;;;;;;14.31;71.22;96612.03;5058386;28;20200;-70
2021/04/22 11:12:05;;;;;;;37.38;19.30;;;;;;;14.30;69.27;96605.06;5058542;28;20678;-69
2021/04/22 11:14:37;;;;;;;33.30;18.10;;;;;;;14.43;67.02;96610.50;5058925;28;20228;-71